Cherrabah Airport


Codes: YCHB/CRH
Name: Cherrabah Airport
City: Cherrabah Homestead Resort
Country: Australia
Elevation: 2228 ft.

Photos at Cherrabah Airport


   Photos courtesy of SpottingLog. You can add your own sightings and photos by signing up for a free trial today.



No photos found.

Weather at Cherrabah Airport


Time (UTC)DescriptionTempratureWindCloud coverageVisibilityPressureHumidity
15-Apr-2024 18:00Overcast Clouds15°C0 mph, SW98%10000m1024hPa94%
15-Apr-2024 21:00Overcast Clouds15°C2 mph, SW98%10000m1025hPa89%
16-Apr-2024 00:00Overcast Clouds23°C2 mph, NW93%10000m1024hPa55%
16-Apr-2024 03:00Overcast Clouds25°C2 mph, NW96%10000m1020hPa42%
16-Apr-2024 06:00Overcast Clouds20°C2 mph, SE96%10000m1020hPa65%
16-Apr-2024 09:00Overcast Clouds19°C2 mph, S100%10000m1022hPa67%
16-Apr-2024 12:00Broken Clouds15°C2 mph, S74%10000m1023hPa81%
16-Apr-2024 15:00Clear Sky13°C2 mph, SE0%10000m1023hPa92%
16-Apr-2024 18:00Clear Sky14°C2 mph, S1%10000m1022hPa90%
16-Apr-2024 21:00Scattered Clouds15°C0 mph, S44%10000m1023hPa85%
17-Apr-2024 00:00Light Rain22°C2 mph, S24%10000m1023hPa61%
17-Apr-2024 03:00Light Rain23°C2 mph, SE6%10000m1020hPa55%
17-Apr-2024 06:00Light Rain20°C2 mph, SE21%10000m1019hPa67%
17-Apr-2024 09:00Light Rain15°C2 mph, SE30%10000m1021hPa90%
17-Apr-2024 12:00Light Rain14°C4 mph, SE17%10000m1021hPa96%
17-Apr-2024 15:00Light Rain13°C4 mph, SE25%10000m1021hPa98%
17-Apr-2024 18:00Scattered Clouds13°C2 mph, SE25%10000m1020hPa97%
17-Apr-2024 21:00Scattered Clouds14°C2 mph, S42%10000m1020hPa93%
18-Apr-2024 00:00Light Rain20°C4 mph, NW28%10000m1018hPa70%
18-Apr-2024 03:00Moderate Rain21°C7 mph, W12%10000m1016hPa67%
18-Apr-2024 06:00Light Rain18°C7 mph, SW23%3909m1014hPa84%
18-Apr-2024 09:00Moderate Rain15°C2 mph, SE95%10000m1017hPa98%
18-Apr-2024 12:00Broken Clouds13°C4 mph, SW81%10000m1017hPa95%
18-Apr-2024 15:00Clear Sky11°C4 mph, SW0%10000m1016hPa92%
18-Apr-2024 18:00Clear Sky10°C4 mph, SW0%10000m1016hPa93%
18-Apr-2024 21:00Clear Sky11°C2 mph, SW0%10000m1017hPa90%
19-Apr-2024 00:00Clear Sky18°C4 mph, E0%10000m1017hPa56%
19-Apr-2024 03:00Clear Sky21°C4 mph, E1%10000m1015hPa44%
19-Apr-2024 06:00Clear Sky20°C2 mph, NE0%10000m1014hPa50%
19-Apr-2024 09:00Clear Sky13°C4 mph, SE4%10000m1018hPa88%
19-Apr-2024 12:00Light Rain12°C7 mph, SE9%10000m1020hPa97%
19-Apr-2024 15:00Light Rain12°C7 mph, SE95%10000m1019hPa95%
19-Apr-2024 18:00Broken Clouds11°C4 mph, SE73%5636m1019hPa99%
19-Apr-2024 21:00Overcast Clouds12°C7 mph, SE94%8537m1021hPa97%
20-Apr-2024 00:00Overcast Clouds17°C11 mph, SE92%10000m1020hPa71%
20-Apr-2024 03:00Overcast Clouds18°C9 mph, SE100%10000m1018hPa60%
20-Apr-2024 06:00Overcast Clouds17°C9 mph, SE100%10000m1018hPa63%
20-Apr-2024 09:00Broken Clouds11°C4 mph, SE75%10000m1021hPa94%
20-Apr-2024 12:00Scattered Clouds11°C4 mph, SE47%10000m1021hPa97%
20-Apr-2024 15:00Scattered Clouds10°C7 mph, SE27%10000m1021hPa97%